Japeri, Brazil
Current Conditions -  °F | °C
As of 7:00 PM on Monday 20 Oct 2014 (Local Time) from SBSC Reporting Station
Broken Clouds Broken Clouds  
Wind Chill: 73°   Ceiling: 4000
Heat Index: 73°   Visibility: 5mi
Dew Point: 64°   Wind: 9mph
Humidity: 73%   Direction: 260°W
Pressure: 30"   Gusts: NA
Location:  22.64°S, 43.65°W
Report Text: SBSC 202200Z 26008KT 8000 FEW012 BKN040 23/18 Q1016
Loading
Personal Weather Stations






























Interactive Weather Map
Tropical Storm Tracking
New forecast layout! Learn more

10-Day Weather Forecast

Advertisements
Track Severe Weather on mobile